SAS41A ESGG-ESSA
Flight info
| Callsign | SAS41A |
|---|---|
| Flight time | 1h 5m |
| Altitude | 29000 |
| Route | LABAN N873 ARS T317 ELTOK |
| Aircraft | A320/M-SDE3FGHIRWY/LB1 |
Departure
| Time | 2026-05-07 18:01 |
|---|---|
| Airport | Göteborg Landvetter Airport (ESGG) |
Arrival
| Time | 2026-05-07 19:06 |
|---|---|
| Airport | Stockholm-Arlanda Airport (ESSA) |
| Time | Latitude | Longitude | Altitude | Speed | Heading |
|---|---|---|---|---|---|
| 2026-05-07 17:26 | 57.66887 | 12.29426 | 516 ft | 0 kts | 116° |
| 2026-05-07 17:48 | 57.66888 | 12.29419 | 516 ft | 2 kts | 116° |
| 2026-05-07 17:48 | 57.66897 | 12.29388 | 516 ft | 3 kts | 116° |
| 2026-05-07 17:48 | 57.66906 | 12.29354 | 516 ft | 3 kts | 116° |
| 2026-05-07 17:48 | 57.66913 | 12.29323 | 516 ft | 3 kts | 90° |
| 2026-05-07 17:49 | 57.66908 | 12.29293 | 516 ft | 3 kts | 39° |
| 2026-05-07 17:49 | 57.66893 | 12.29274 | 516 ft | 2 kts | 26° |
| 2026-05-07 17:49 | 57.66889 | 12.29271 | 516 ft | 0 kts | 26° |
| 2026-05-07 17:54 | 57.66908 | 12.29288 | 516 ft | 5 kts | 26° |
| 2026-05-07 17:54 | 57.66949 | 12.29326 | 516 ft | 8 kts | 26° |
| 2026-05-07 17:54 | 57.66988 | 12.29284 | 516 ft | 1 kts | 299° |
| 2026-05-07 17:55 | 57.66988 | 12.29283 | 516 ft | 0 kts | 298° |
| 2026-05-07 17:56 | 57.66995 | 12.29259 | 516 ft | 4 kts | 297° |
| 2026-05-07 17:56 | 57.67015 | 12.29183 | 516 ft | 8 kts | 296° |
| 2026-05-07 17:56 | 57.67050 | 12.29076 | 514 ft | 12 kts | 319° |
| 2026-05-07 17:56 | 57.67131 | 12.29097 | 514 ft | 14 kts | 26° |
| 2026-05-07 17:57 | 57.67223 | 12.29181 | 515 ft | 16 kts | 26° |
| 2026-05-07 17:57 | 57.67291 | 12.29243 | 515 ft | 17 kts | 26° |
| 2026-05-07 17:57 | 57.67401 | 12.29339 | 515 ft | 12 kts | 18° |
| 2026-05-07 17:57 | 57.67453 | 12.29308 | 515 ft | 8 kts | 309° |
| 2026-05-07 17:58 | 57.67459 | 12.29267 | 515 ft | 0 kts | 276° |
| 2026-05-07 17:58 | 57.67460 | 12.29260 | 515 ft | 3 kts | 274° |
| 2026-05-07 17:59 | 57.67458 | 12.29165 | 514 ft | 8 kts | 264° |
| 2026-05-07 17:59 | 57.67447 | 12.29060 | 515 ft | 8 kts | 248° |
| 2026-05-07 17:59 | 57.67416 | 12.29011 | 515 ft | 0 kts | 206° |
| 2026-05-07 18:00 | 57.67399 | 12.28995 | 515 ft | 20 kts | 206° |
| 2026-05-07 18:00 | 57.67048 | 12.28676 | 514 ft | 89 kts | 206° |
| 2026-05-07 18:00 | 57.66325 | 12.28020 | 511 ft | 140 kts | 207° |
| 2026-05-07 18:00 | 57.65322 | 12.27108 | 594 ft | 173 kts | 207° |
| 2026-05-07 18:01 | 57.64249 | 12.26146 | 1240 ft | 171 kts | 208° |
| 2026-05-07 18:01 | 57.63172 | 12.25218 | 1927 ft | 171 kts | 197° |
| 2026-05-07 18:01 | 57.61983 | 12.25291 | 2410 ft | 181 kts | 160° |
| 2026-05-07 18:01 | 57.60744 | 12.26225 | 2655 ft | 203 kts | 157° |
| 2026-05-07 18:02 | 57.57955 | 12.28428 | 3846 ft | 221 kts | 151° |
| 2026-05-07 18:02 | 57.56891 | 12.30408 | 4645 ft | 220 kts | 112° |
| 2026-05-07 18:02 | 57.56733 | 12.33288 | 5139 ft | 239 kts | 78° |
| 2026-05-07 18:03 | 57.57250 | 12.36380 | 5587 ft | 259 kts | 70° |
| 2026-05-07 18:03 | 57.57899 | 12.39354 | 6331 ft | 266 kts | 67° |
| 2026-05-07 18:03 | 57.58636 | 12.42544 | 7129 ft | 271 kts | 67° |
| 2026-05-07 18:03 | 57.59387 | 12.45815 | 7907 ft | 277 kts | 67° |
| 2026-05-07 18:04 | 57.60136 | 12.49157 | 8680 ft | 282 kts | 67° |
| 2026-05-07 18:04 | 57.60886 | 12.52573 | 9448 ft | 288 kts | 67° |
| 2026-05-07 18:04 | 57.61706 | 12.56015 | 10191 ft | 292 kts | 59° |
| 2026-05-07 18:04 | 57.62903 | 12.59054 | 10749 ft | 302 kts | 45° |
| 2026-05-07 18:05 | 57.64428 | 12.61973 | 10930 ft | 325 kts | 44° |
| 2026-05-07 18:05 | 57.66056 | 12.65034 | 11365 ft | 337 kts | 44° |
| 2026-05-07 18:05 | 57.67723 | 12.68159 | 12019 ft | 342 kts | 44° |
| 2026-05-07 18:05 | 57.69410 | 12.71324 | 12723 ft | 345 kts | 44° |
| 2026-05-07 18:06 | 57.71113 | 12.74526 | 13412 ft | 349 kts | 44° |
| 2026-05-07 18:06 | 57.72830 | 12.77766 | 14074 ft | 353 kts | 44° |
| 2026-05-07 18:06 | 57.74565 | 12.81053 | 14668 ft | 357 kts | 44° |
| 2026-05-07 18:06 | 57.76319 | 12.84387 | 15014 ft | 360 kts | 44° |
| 2026-05-07 18:07 | 57.78074 | 12.87728 | 15099 ft | 360 kts | 44° |
| 2026-05-07 18:07 | 57.79834 | 12.91081 | 15132 ft | 362 kts | 44° |
| 2026-05-07 18:07 | 57.81612 | 12.94467 | 15720 ft | 364 kts | 43° |
| 2026-05-07 18:07 | 57.83394 | 12.97862 | 16329 ft | 367 kts | 43° |
| 2026-05-07 18:08 | 57.85192 | 13.01300 | 16913 ft | 371 kts | 43° |
| 2026-05-07 18:08 | 57.87007 | 13.04778 | 17502 ft | 375 kts | 43° |
| 2026-05-07 18:08 | 57.88817 | 13.08247 | 18102 ft | 378 kts | 43° |
| 2026-05-07 18:08 | 57.90667 | 13.11794 | 18643 ft | 382 kts | 43° |
| 2026-05-07 18:09 | 57.92536 | 13.15380 | 19162 ft | 385 kts | 43° |
| 2026-05-07 18:09 | 57.94420 | 13.19006 | 19701 ft | 389 kts | 43° |
| 2026-05-07 18:09 | 57.96320 | 13.22666 | 20241 ft | 392 kts | 43° |
| 2026-05-07 18:09 | 57.98233 | 13.26361 | 20766 ft | 396 kts | 43° |
| 2026-05-07 18:10 | 58.00165 | 13.30096 | 21281 ft | 400 kts | 43° |
| 2026-05-07 18:10 | 58.02114 | 13.33869 | 21779 ft | 403 kts | 43° |
| 2026-05-07 18:10 | 58.04075 | 13.37677 | 22285 ft | 407 kts | 43° |
| 2026-05-07 18:10 | 58.06054 | 13.41530 | 22784 ft | 410 kts | 43° |
| 2026-05-07 18:11 | 58.08050 | 13.45420 | 23271 ft | 414 kts | 43° |
| 2026-05-07 18:11 | 58.09376 | 13.48012 | 23605 ft | 416 kts | 43° |
| 2026-05-07 18:11 | 58.12085 | 13.53319 | 24160 ft | 420 kts | 43° |
| 2026-05-07 18:11 | 58.14124 | 13.57318 | 24573 ft | 423 kts | 43° |
| 2026-05-07 18:12 | 58.16171 | 13.61333 | 24986 ft | 425 kts | 43° |
| 2026-05-07 18:12 | 58.18234 | 13.65380 | 25392 ft | 428 kts | 43° |
| 2026-05-07 18:12 | 58.20305 | 13.69451 | 25784 ft | 430 kts | 43° |
| 2026-05-07 18:12 | 58.22386 | 13.73549 | 26185 ft | 432 kts | 43° |
| 2026-05-07 18:13 | 58.24477 | 13.77676 | 26576 ft | 435 kts | 43° |
| 2026-05-07 18:13 | 58.26548 | 13.81774 | 26938 ft | 437 kts | 43° |
| 2026-05-07 18:13 | 58.28654 | 13.85951 | 27307 ft | 439 kts | 43° |
| 2026-05-07 18:13 | 58.30771 | 13.90157 | 27677 ft | 442 kts | 43° |
| 2026-05-07 18:14 | 58.32899 | 13.94397 | 28050 ft | 444 kts | 43° |
| 2026-05-07 18:14 | 58.35033 | 13.98659 | 28409 ft | 446 kts | 43° |
| 2026-05-07 18:14 | 58.37172 | 14.02932 | 28768 ft | 448 kts | 43° |
| 2026-05-07 18:14 | 58.39340 | 14.07264 | 29063 ft | 451 kts | 43° |
| 2026-05-07 18:15 | 58.41484 | 14.11569 | 29120 ft | 441 kts | 43° |
| 2026-05-07 18:15 | 58.45654 | 14.19972 | 29116 ft | 433 kts | 42° |
| 2026-05-07 18:16 | 58.49800 | 14.28337 | 29113 ft | 433 kts | 42° |
| 2026-05-07 18:16 | 58.53936 | 14.36714 | 29110 ft | 433 kts | 42° |
| 2026-05-07 18:17 | 58.58068 | 14.45103 | 29115 ft | 433 kts | 43° |
| 2026-05-07 18:17 | 58.62168 | 14.53480 | 29115 ft | 433 kts | 43° |
| 2026-05-07 18:18 | 58.66296 | 14.61936 | 29119 ft | 434 kts | 43° |
| 2026-05-07 18:18 | 58.70419 | 14.70406 | 29122 ft | 434 kts | 43° |
| 2026-05-07 18:19 | 58.74537 | 14.78889 | 29128 ft | 434 kts | 43° |
| 2026-05-07 18:19 | 58.78654 | 14.87422 | 29129 ft | 434 kts | 43° |
| 2026-05-07 18:20 | 58.82759 | 14.95967 | 29132 ft | 435 kts | 43° |
| 2026-05-07 18:20 | 58.86870 | 15.04550 | 29135 ft | 435 kts | 43° |
| 2026-05-07 18:21 | 58.90959 | 15.13121 | 28891 ft | 428 kts | 43° |
| 2026-05-07 18:21 | 58.92952 | 15.17323 | 28619 ft | 420 kts | 43° |
| 2026-05-07 18:21 | 58.94918 | 15.21472 | 28329 ft | 416 kts | 42° |
| 2026-05-07 18:21 | 58.96871 | 15.25588 | 28015 ft | 414 kts | 42° |
| 2026-05-07 18:22 | 58.98816 | 15.29686 | 27697 ft | 412 kts | 42° |
| 2026-05-07 18:22 | 59.00100 | 15.32397 | 27449 ft | 411 kts | 42° |
| 2026-05-07 18:22 | 59.02668 | 15.37837 | 26936 ft | 408 kts | 43° |
| 2026-05-07 18:22 | 59.04580 | 15.41903 | 26549 ft | 406 kts | 43° |
| 2026-05-07 18:23 | 59.06483 | 15.45954 | 26168 ft | 405 kts | 43° |
| 2026-05-07 18:23 | 59.08374 | 15.49979 | 25796 ft | 403 kts | 43° |
| 2026-05-07 18:23 | 59.10256 | 15.53994 | 25423 ft | 401 kts | 43° |
| 2026-05-07 18:23 | 59.12127 | 15.57997 | 25048 ft | 399 kts | 43° |
| 2026-05-07 18:24 | 59.13985 | 15.61998 | 24644 ft | 398 kts | 45° |
| 2026-05-07 18:24 | 59.15573 | 15.66456 | 24246 ft | 401 kts | 54° |
| 2026-05-07 18:24 | 59.17051 | 15.71057 | 23848 ft | 400 kts | 54° |
| 2026-05-07 18:24 | 59.18517 | 15.75650 | 23407 ft | 398 kts | 54° |
| 2026-05-07 18:25 | 59.19971 | 15.80226 | 22985 ft | 395 kts | 54° |
| 2026-05-07 18:25 | 59.21413 | 15.84772 | 22575 ft | 392 kts | 54° |
| 2026-05-07 18:25 | 59.22836 | 15.89270 | 22168 ft | 388 kts | 54° |
| 2026-05-07 18:25 | 59.24253 | 15.93757 | 21770 ft | 385 kts | 54° |
| 2026-05-07 18:26 | 59.25511 | 15.97745 | 21419 ft | 383 kts | 54° |
| 2026-05-07 18:26 | 59.26898 | 16.02160 | 21029 ft | 380 kts | 54° |
| 2026-05-07 18:26 | 59.28279 | 16.06555 | 20645 ft | 378 kts | 54° |
| 2026-05-07 18:26 | 59.29639 | 16.10893 | 20262 ft | 375 kts | 54° |
| 2026-05-07 18:27 | 59.31007 | 16.15266 | 19891 ft | 373 kts | 54° |
| 2026-05-07 18:27 | 59.32356 | 16.19589 | 19507 ft | 371 kts | 54° |
| 2026-05-07 18:27 | 59.33582 | 16.23522 | 19132 ft | 369 kts | 54° |
| 2026-05-07 18:27 | 59.34466 | 16.26366 | 18857 ft | 368 kts | 54° |
| 2026-05-07 18:28 | 59.36240 | 16.32088 | 18300 ft | 366 kts | 55° |
| 2026-05-07 18:28 | 59.37556 | 16.36341 | 17833 ft | 365 kts | 55° |
| 2026-05-07 18:28 | 59.38873 | 16.40594 | 17364 ft | 363 kts | 55° |
| 2026-05-07 18:28 | 59.40174 | 16.44804 | 16909 ft | 361 kts | 55° |
| 2026-05-07 18:29 | 59.41475 | 16.49026 | 16472 ft | 359 kts | 55° |
| 2026-05-07 18:29 | 59.42763 | 16.53211 | 16037 ft | 357 kts | 55° |
| 2026-05-07 18:29 | 59.44044 | 16.57384 | 15606 ft | 355 kts | 55° |
| 2026-05-07 18:29 | 59.45316 | 16.61527 | 15152 ft | 353 kts | 55° |
| 2026-05-07 18:30 | 59.46576 | 16.65632 | 14687 ft | 345 kts | 55° |
| 2026-05-07 18:30 | 59.47793 | 16.69615 | 14255 ft | 334 kts | 55° |
| 2026-05-07 18:30 | 59.48956 | 16.73430 | 13815 ft | 329 kts | 55° |
| 2026-05-07 18:30 | 59.50149 | 16.77339 | 13308 ft | 325 kts | 55° |
| 2026-05-07 18:31 | 59.51309 | 16.81149 | 12821 ft | 323 kts | 56° |
| 2026-05-07 18:31 | 59.52459 | 16.84940 | 12356 ft | 321 kts | 56° |
| 2026-05-07 18:31 | 59.53594 | 16.88690 | 11875 ft | 318 kts | 56° |
| 2026-05-07 18:31 | 59.54724 | 16.92422 | 11407 ft | 315 kts | 56° |
| 2026-05-07 18:32 | 59.55840 | 16.96110 | 10950 ft | 312 kts | 56° |
| 2026-05-07 18:32 | 59.56947 | 16.99779 | 10499 ft | 310 kts | 56° |
| 2026-05-07 18:32 | 59.58046 | 17.03423 | 10074 ft | 307 kts | 57° |
| 2026-05-07 18:32 | 59.58765 | 17.05813 | 9834 ft | 305 kts | 57° |
| 2026-05-07 18:33 | 59.59840 | 17.09381 | 9468 ft | 297 kts | 57° |
| 2026-05-07 18:33 | 59.60880 | 17.12846 | 9116 ft | 291 kts | 57° |
| 2026-05-07 18:33 | 59.61906 | 17.16261 | 8776 ft | 290 kts | 57° |
| 2026-05-07 18:33 | 59.62928 | 17.19673 | 8483 ft | 286 kts | 57° |
| 2026-05-07 18:34 | 59.63934 | 17.23044 | 8196 ft | 283 kts | 58° |
| 2026-05-07 18:34 | 59.64924 | 17.26372 | 7926 ft | 278 kts | 58° |
| 2026-05-07 18:34 | 59.65881 | 17.29595 | 7666 ft | 265 kts | 58° |
| 2026-05-07 18:34 | 59.66540 | 17.31810 | 7484 ft | 255 kts | 58° |
| 2026-05-07 18:35 | 59.67422 | 17.34771 | 7243 ft | 246 kts | 58° |
| 2026-05-07 18:35 | 59.68283 | 17.37670 | 7024 ft | 244 kts | 58° |
| 2026-05-07 18:35 | 59.69137 | 17.40556 | 6798 ft | 242 kts | 58° |
| 2026-05-07 18:35 | 59.69981 | 17.43417 | 6574 ft | 240 kts | 58° |
| 2026-05-07 18:36 | 59.70824 | 17.46270 | 6329 ft | 238 kts | 58° |
| 2026-05-07 18:36 | 59.71636 | 17.49021 | 6117 ft | 234 kts | 58° |
| 2026-05-07 18:36 | 59.72435 | 17.51741 | 5895 ft | 222 kts | 59° |
| 2026-05-07 18:36 | 59.73195 | 17.54327 | 5691 ft | 214 kts | 58° |
| 2026-05-07 18:37 | 59.73935 | 17.56844 | 5484 ft | 209 kts | 59° |
| 2026-05-07 18:37 | 59.74650 | 17.59300 | 5341 ft | 201 kts | 61° |
| 2026-05-07 18:37 | 59.75276 | 17.61732 | 5228 ft | 196 kts | 63° |
| 2026-05-07 18:37 | 59.75863 | 17.64163 | 5141 ft | 195 kts | 63° |
| 2026-05-07 18:38 | 59.76441 | 17.66578 | 4897 ft | 192 kts | 64° |
| 2026-05-07 18:38 | 59.77003 | 17.68919 | 4651 ft | 189 kts | 64° |
| 2026-05-07 18:38 | 59.77564 | 17.71279 | 4407 ft | 185 kts | 67° |
| 2026-05-07 18:38 | 59.77949 | 17.73637 | 4161 ft | 173 kts | 74° |
| 2026-05-07 18:39 | 59.78263 | 17.75811 | 3965 ft | 160 kts | 74° |
| 2026-05-07 18:39 | 59.78559 | 17.77841 | 3787 ft | 149 kts | 74° |
| 2026-05-07 18:39 | 59.78848 | 17.79828 | 3596 ft | 147 kts | 74° |
| 2026-05-07 18:39 | 59.79093 | 17.81752 | 3402 ft | 145 kts | 82° |
| 2026-05-07 18:40 | 59.79056 | 17.83714 | 3169 ft | 142 kts | 117° |
| 2026-05-07 18:40 | 59.78316 | 17.84861 | 3029 ft | 139 kts | 172° |
| 2026-05-07 18:40 | 59.77424 | 17.84286 | 3189 ft | 139 kts | 223° |
| 2026-05-07 18:40 | 59.76824 | 17.82899 | 3318 ft | 136 kts | 234° |
| 2026-05-07 18:41 | 59.76298 | 17.81306 | 3575 ft | 140 kts | 237° |
| 2026-05-07 18:41 | 59.75779 | 17.79659 | 3832 ft | 143 kts | 238° |
| 2026-05-07 18:41 | 59.75234 | 17.77935 | 3998 ft | 154 kts | 238° |
| 2026-05-07 18:41 | 59.74632 | 17.76046 | 4025 ft | 171 kts | 238° |
| 2026-05-07 18:42 | 59.73984 | 17.74017 | 4035 ft | 177 kts | 238° |
| 2026-05-07 18:42 | 59.73516 | 17.71791 | 4015 ft | 177 kts | 268° |
| 2026-05-07 18:42 | 59.73874 | 17.69521 | 4026 ft | 178 kts | 310° |
| 2026-05-07 18:42 | 59.74921 | 17.68318 | 4029 ft | 178 kts | 353° |
| 2026-05-07 18:43 | 59.76144 | 17.68736 | 4048 ft | 186 kts | 22° |
| 2026-05-07 18:43 | 59.77336 | 17.69851 | 4034 ft | 190 kts | 27° |
| 2026-05-07 18:43 | 59.78510 | 17.71063 | 4033 ft | 190 kts | 28° |
| 2026-05-07 18:43 | 59.79677 | 17.72284 | 4036 ft | 190 kts | 28° |
| 2026-05-07 18:44 | 59.80850 | 17.73514 | 4035 ft | 190 kts | 28° |
| 2026-05-07 18:44 | 59.82058 | 17.74783 | 4027 ft | 209 kts | 28° |
| 2026-05-07 18:44 | 59.83265 | 17.76509 | 4004 ft | 218 kts | 53° |
| 2026-05-07 18:44 | 59.83833 | 17.79274 | 4032 ft | 220 kts | 84° |
| 2026-05-07 18:45 | 59.83874 | 17.82326 | 4034 ft | 221 kts | 91° |
| 2026-05-07 18:45 | 59.83819 | 17.85389 | 4037 ft | 222 kts | 92° |
| 2026-05-07 18:45 | 59.83749 | 17.88425 | 4029 ft | 212 kts | 93° |
| 2026-05-07 18:45 | 59.83684 | 17.91201 | 4022 ft | 192 kts | 93° |
| 2026-05-07 18:46 | 59.83622 | 17.93810 | 3673 ft | 188 kts | 93° |
| 2026-05-07 18:46 | 59.83563 | 17.96384 | 3349 ft | 186 kts | 93° |
| 2026-05-07 18:46 | 59.83510 | 17.98953 | 3061 ft | 185 kts | 93° |
| 2026-05-07 18:46 | 59.83454 | 18.01493 | 2867 ft | 183 kts | 98° |
| 2026-05-07 18:47 | 59.82951 | 18.03738 | 2726 ft | 181 kts | 137° |
| 2026-05-07 18:47 | 59.81832 | 18.04735 | 2623 ft | 181 kts | 179° |
| 2026-05-07 18:47 | 59.80659 | 18.03948 | 2554 ft | 183 kts | 221° |
| 2026-05-07 18:47 | 59.79723 | 18.02211 | 2531 ft | 185 kts | 211° |
| 2026-05-07 18:48 | 59.78567 | 18.01154 | 2539 ft | 183 kts | 196° |
| 2026-05-07 18:48 | 59.77336 | 18.00507 | 2532 ft | 183 kts | 191° |
| 2026-05-07 18:48 | 59.76087 | 17.99992 | 2391 ft | 183 kts | 190° |
| 2026-05-07 18:48 | 59.74846 | 17.99523 | 2175 ft | 181 kts | 189° |
| 2026-05-07 18:49 | 59.73613 | 17.99068 | 1973 ft | 176 kts | 189° |
| 2026-05-07 18:49 | 59.72452 | 17.98643 | 1710 ft | 161 kts | 189° |
| 2026-05-07 18:49 | 59.71417 | 17.98264 | 1488 ft | 143 kts | 189° |
| 2026-05-07 18:49 | 59.70458 | 17.97915 | 1296 ft | 138 kts | 188° |
| 2026-05-07 18:50 | 59.69523 | 17.97575 | 1104 ft | 136 kts | 188° |
| 2026-05-07 18:50 | 59.68597 | 17.97238 | 913 ft | 135 kts | 188° |
| 2026-05-07 18:50 | 59.67679 | 17.96905 | 721 ft | 136 kts | 187° |
| 2026-05-07 18:50 | 59.66736 | 17.96562 | 534 ft | 137 kts | 188° |
| 2026-05-07 18:51 | 59.65744 | 17.96209 | 605 ft | 155 kts | 187° |
| 2026-05-07 18:51 | 59.64726 | 17.95855 | 1610 ft | 131 kts | 188° |
| 2026-05-07 18:51 | 59.63935 | 17.95568 | 2262 ft | 116 kts | 189° |
| 2026-05-07 18:51 | 59.63066 | 17.95269 | 2620 ft | 134 kts | 188° |
| 2026-05-07 18:52 | 59.62160 | 17.95008 | 3358 ft | 127 kts | 186° |
| 2026-05-07 18:52 | 59.61304 | 17.94798 | 3966 ft | 124 kts | 188° |
| 2026-05-07 18:52 | 59.60382 | 17.94851 | 4315 ft | 144 kts | 165° |
| 2026-05-07 18:52 | 59.59420 | 17.95836 | 4596 ft | 174 kts | 141° |
| 2026-05-07 18:53 | 59.58623 | 17.97881 | 4899 ft | 210 kts | 109° |
| 2026-05-07 18:53 | 59.58244 | 18.00898 | 4977 ft | 238 kts | 99° |
| 2026-05-07 18:53 | 59.57976 | 18.04083 | 4911 ft | 231 kts | 98° |
| 2026-05-07 18:53 | 59.57730 | 18.07155 | 4774 ft | 223 kts | 98° |
| 2026-05-07 18:54 | 59.57497 | 18.10143 | 4520 ft | 219 kts | 96° |
| 2026-05-07 18:54 | 59.57528 | 18.13114 | 4245 ft | 216 kts | 73° |
| 2026-05-07 18:54 | 59.58325 | 18.15546 | 4068 ft | 214 kts | 38° |
| 2026-05-07 18:54 | 59.59599 | 18.17105 | 4034 ft | 218 kts | 24° |
| 2026-05-07 18:55 | 59.61027 | 18.18161 | 4036 ft | 219 kts | 19° |
| 2026-05-07 18:55 | 59.62477 | 18.19108 | 4039 ft | 220 kts | 18° |
| 2026-05-07 18:55 | 59.63932 | 18.20042 | 4038 ft | 220 kts | 18° |
| 2026-05-07 18:55 | 59.65394 | 18.20931 | 4036 ft | 220 kts | 11° |
| 2026-05-07 18:56 | 59.66917 | 18.21292 | 4039 ft | 220 kts | 4° |
| 2026-05-07 18:56 | 59.68444 | 18.21473 | 4040 ft | 220 kts | 3° |
| 2026-05-07 18:56 | 59.69981 | 18.21631 | 4039 ft | 221 kts | 3° |
| 2026-05-07 18:56 | 59.71512 | 18.21787 | 4040 ft | 221 kts | 3° |
| 2026-05-07 18:57 | 59.73045 | 18.21947 | 4040 ft | 220 kts | 3° |
| 2026-05-07 18:57 | 59.74575 | 18.22106 | 4042 ft | 220 kts | 3° |
| 2026-05-07 18:57 | 59.76105 | 18.22265 | 4038 ft | 220 kts | 3° |
| 2026-05-07 18:57 | 59.77635 | 18.22427 | 4041 ft | 220 kts | 3° |
| 2026-05-07 18:58 | 59.79161 | 18.22588 | 4041 ft | 220 kts | 3° |
| 2026-05-07 18:58 | 59.80688 | 18.22749 | 4038 ft | 220 kts | 3° |
| 2026-05-07 18:58 | 59.82217 | 18.22905 | 4041 ft | 220 kts | 1° |
| 2026-05-07 18:58 | 59.83684 | 18.22271 | 4035 ft | 219 kts | 329° |
| 2026-05-07 18:59 | 59.84714 | 18.20144 | 3946 ft | 212 kts | 294° |
| 2026-05-07 18:59 | 59.85107 | 18.17350 | 3832 ft | 210 kts | 280° |
| 2026-05-07 18:59 | 59.85338 | 18.14484 | 3704 ft | 210 kts | 278° |
| 2026-05-07 18:59 | 59.85548 | 18.11609 | 3521 ft | 210 kts | 278° |
| 2026-05-07 19:00 | 59.85683 | 18.08734 | 3341 ft | 209 kts | 265° |
| 2026-05-07 19:00 | 59.85376 | 18.05920 | 3155 ft | 208 kts | 243° |
| 2026-05-07 19:00 | 59.84486 | 18.03701 | 2972 ft | 205 kts | 214° |
| 2026-05-07 19:00 | 59.83209 | 18.02572 | 2790 ft | 199 kts | 189° |
| 2026-05-07 19:01 | 59.81874 | 18.02087 | 2624 ft | 191 kts | 189° |
| 2026-05-07 19:01 | 59.80609 | 18.01626 | 2561 ft | 184 kts | 189° |
| 2026-05-07 19:01 | 59.79365 | 18.01170 | 2528 ft | 181 kts | 189° |
| 2026-05-07 19:01 | 59.78130 | 18.00718 | 2527 ft | 180 kts | 189° |
| 2026-05-07 19:02 | 59.76910 | 18.00272 | 2497 ft | 180 kts | 189° |
| 2026-05-07 19:02 | 59.75681 | 17.99822 | 2321 ft | 179 kts | 189° |
| 2026-05-07 19:02 | 59.74463 | 17.99377 | 2098 ft | 177 kts | 189° |
| 2026-05-07 19:02 | 59.73283 | 17.98946 | 1860 ft | 165 kts | 189° |
| 2026-05-07 19:03 | 59.72230 | 17.98561 | 1650 ft | 145 kts | 189° |
| 2026-05-07 19:03 | 59.71267 | 17.98210 | 1460 ft | 137 kts | 188° |
| 2026-05-07 19:03 | 59.70338 | 17.97872 | 1268 ft | 135 kts | 188° |
| 2026-05-07 19:03 | 59.69419 | 17.97537 | 1082 ft | 134 kts | 188° |
| 2026-05-07 19:04 | 59.68503 | 17.97204 | 891 ft | 134 kts | 188° |
| 2026-05-07 19:04 | 59.67587 | 17.96871 | 700 ft | 134 kts | 187° |
| 2026-05-07 19:04 | 59.66671 | 17.96538 | 520 ft | 135 kts | 188° |
| 2026-05-07 19:04 | 59.65747 | 17.96205 | 330 ft | 135 kts | 188° |
| 2026-05-07 19:05 | 59.64826 | 17.95864 | 146 ft | 135 kts | 187° |
| 2026-05-07 19:05 | 59.63979 | 17.95561 | 112 ft | 104 kts | 189° |
| 2026-05-07 19:05 | 59.63432 | 17.95366 | 123 ft | 57 kts | 190° |
| 2026-05-07 19:05 | 59.63061 | 17.95200 | 134 ft | 50 kts | 204° |
| 2026-05-07 19:06 | 59.62860 | 17.94914 | 137 ft | 15 kts | 230° |
| 2026-05-07 19:06 | 59.62959 | 17.94784 | 135 ft | 15 kts | 10° |
| 2026-05-07 19:06 | 59.63081 | 17.94829 | 128 ft | 21 kts | 11° |
| 2026-05-07 19:07 | 59.63241 | 17.94887 | 126 ft | 26 kts | 11° |
| 2026-05-07 19:07 | 59.63436 | 17.94957 | 120 ft | 31 kts | 10° |
| 2026-05-07 19:07 | 59.63663 | 17.95039 | 113 ft | 35 kts | 11° |
| 2026-05-07 19:07 | 59.63886 | 17.95121 | 110 ft | 33 kts | 10° |
| 2026-05-07 19:08 | 59.64088 | 17.95193 | 108 ft | 25 kts | 11° |
| 2026-05-07 19:08 | 59.64270 | 17.95258 | 106 ft | 28 kts | 11° |
| 2026-05-07 19:08 | 59.64463 | 17.95328 | 105 ft | 26 kts | 9° |
| 2026-05-07 19:08 | 59.64648 | 17.95397 | 105 ft | 29 kts | 11° |
| 2026-05-07 19:09 | 59.64838 | 17.95466 | 107 ft | 23 kts | 10° |
| 2026-05-07 19:09 | 59.64997 | 17.95515 | 113 ft | 23 kts | 360° |
| 2026-05-07 19:09 | 59.65151 | 17.95458 | 116 ft | 22 kts | 344° |
| 2026-05-07 19:09 | 59.65298 | 17.95380 | 124 ft | 22 kts | 343° |
| 2026-05-07 19:10 | 59.65446 | 17.95302 | 125 ft | 23 kts | 345° |
| 2026-05-07 19:10 | 59.65611 | 17.95214 | 127 ft | 26 kts | 345° |
| 2026-05-07 19:10 | 59.65743 | 17.95100 | 125 ft | 18 kts | 302° |
| 2026-05-07 19:10 | 59.65727 | 17.94839 | 122 ft | 21 kts | 256° |
| 2026-05-07 19:11 | 59.65688 | 17.94536 | 121 ft | 24 kts | 256° |
| 2026-05-07 19:11 | 59.65646 | 17.94200 | 120 ft | 27 kts | 256° |
| 2026-05-07 19:11 | 59.65600 | 17.93836 | 113 ft | 24 kts | 256° |
| 2026-05-07 19:11 | 59.65556 | 17.93491 | 112 ft | 28 kts | 255° |
| 2026-05-07 19:12 | 59.65512 | 17.93154 | 110 ft | 18 kts | 257° |
| 2026-05-07 19:12 | 59.65473 | 17.92897 | 112 ft | 21 kts | 249° |
| 2026-05-07 19:12 | 59.65401 | 17.92623 | 111 ft | 24 kts | 230° |
| 2026-05-07 19:12 | 59.65297 | 17.92493 | 112 ft | 15 kts | 168° |
| 2026-05-07 19:13 | 59.65250 | 17.92645 | 111 ft | 8 kts | 108° |
| 2026-05-07 19:13 | 59.65212 | 17.92718 | 112 ft | 6 kts | 191° |
| 2026-05-07 19:13 | 59.65170 | 17.92706 | 112 ft | 4 kts | 189° |
| 2026-05-07 19:13 | 59.65149 | 17.92699 | 112 ft | 2 kts | 190° |
| 2026-05-07 19:14 | 59.65144 | 17.92697 | 112 ft | 0 kts | 190° |